Time;durP1;ratioP1;P1;durP2;ratioP2;P2;SDS_P1;SDS_P2;PMS_P1;PMS_P2;Temp;Humidity;BMP_temperature;BMP_pressure;BME280_temperature;BME280_humidity;BME280_pressure;Samples;Min_cycle;Max_cycle;Signal;HPM_P1;HPM_P2
2023/10/22 00:01:27;;;;;;;3.58;1.00;;;;;;;;;;5041965;28;20473;-58
2023/10/22 00:03:54;;;;;;;7.67;1.13;;;;;;;;;;5039537;28;20415;-55
2023/10/22 00:06:21;;;;;;;3.90;1.25;;;;;;;;;;5046790;28;20466;-57
2023/10/22 00:08:49;;;;;;;4.20;0.95;;;;;;;;;;5042479;28;20417;-55
2023/10/22 00:11:16;;;;;;;3.40;1.27;;;;;;;;;;5039933;28;20499;-57
2023/10/22 00:13:43;;;;;;;1.90;0.90;;;;;;;;;;5045420;28;20417;-56
2023/10/22 00:16:11;;;;;;;6.05;1.40;;;;;;;;;;5041196;28;20434;-56
2023/10/22 00:18:38;;;;;;;5.43;1.30;;;;;;;;;;5043807;28;20947;-56
2023/10/22 00:21:08;;;;;;;4.95;1.48;;;;;;;;;;5042020;28;20413;-59
2023/10/22 00:23:35;;;;;;;5.95;1.35;;;;;;;;;;5045961;28;20549;-59
2023/10/22 00:26:02;;;;;;;4.40;1.20;;;;;;;;;;5043349;28;20405;-60
2023/10/22 00:28:29;;;;;;;6.10;1.60;;;;;;;;;;5040937;28;20414;-59
2023/10/22 00:30:57;;;;;;;4.45;1.10;;;;;;;;;;5039969;28;20421;-61
2023/10/22 00:33:26;;;;;;;3.47;1.20;;;;;;;;;;5045215;28;20468;-59
2023/10/22 00:35:58;;;;;;;6.82;1.13;;;;;;;;;;5048259;28;20433;-57
2023/10/22 00:38:25;;;;;;;5.40;1.25;;;;;;;;;;5038073;28;20414;-55
2023/10/22 00:40:52;;;;;;;3.72;1.10;;;;;;;;;;5042583;28;20484;-57
2023/10/22 00:43:19;;;;;;;3.70;1.20;;;;;;;;;;5043841;28;20419;-55
2023/10/22 00:45:47;;;;;;;3.60;1.20;;;;;;;;;;5040996;28;20409;-59
2023/10/22 00:48:15;;;;;;;4.72;1.83;;;;;;;;;;5039902;28;20535;-56
2023/10/22 00:50:44;;;;;;;5.05;1.40;;;;;;;;;;5038794;28;20530;-58
2023/10/22 00:53:13;;;;;;;5.88;1.23;;;;;;;;;;5030306;28;20417;-58
2023/10/22 00:55:41;;;;;;;4.15;1.10;;;;;;;;;;5030208;28;20525;-61
2023/10/22 00:58:08;;;;;;;3.72;1.08;;;;;;;;;;5030016;28;20480;-60
2023/10/22 01:00:36;;;;;;;2.97;1.02;;;;;;;;;;5029842;28;20441;-55
2023/10/22 01:03:04;;;;;;;3.28;1.10;;;;;;;;;;5028694;28;20450;-55
2023/10/22 01:05:31;;;;;;;3.13;0.97;;;;;;;;;;5042369;28;20474;-54
2023/10/22 01:08:00;;;;;;;3.83;1.10;;;;;;;;;;5042085;28;20405;-55
2023/10/22 01:10:27;;;;;;;3.60;1.20;;;;;;;;;;5040137;28;20863;-53
2023/10/22 01:12:54;;;;;;;4.60;1.52;;;;;;;;;;5038166;28;20897;-50
2023/10/22 01:15:21;;;;;;;4.70;1.20;;;;;;;;;;5040438;28;20783;-51
2023/10/22 01:17:48;;;;;;;3.55;1.20;;;;;;;;;;5042532;28;20465;-54
2023/10/22 01:20:15;;;;;;;4.45;1.02;;;;;;;;;;5042247;28;20905;-57
2023/10/22 01:22:42;;;;;;;4.20;1.00;;;;;;;;;;5045421;28;20474;-59
2023/10/22 01:25:10;;;;;;;2.92;1.23;;;;;;;;;;5044015;28;20419;-61
2023/10/22 01:27:38;;;;;;;4.93;2.10;;;;;;;;;;5043991;28;20417;-61
2023/10/22 01:30:05;;;;;;;5.75;1.40;;;;;;;;;;5044556;28;20409;-61
2023/10/22 01:32:33;;;;;;;3.90;1.27;;;;;;;;;;5043594;28;20415;-56
2023/10/22 01:35:00;;;;;;;4.18;1.17;;;;;;;;;;5045529;28;20549;-59
2023/10/22 01:37:27;;;;;;;3.22;1.00;;;;;;;;;;5043302;28;20435;-61
2023/10/22 01:39:57;;;;;;;4.63;1.02;;;;;;;;;;5042978;28;20413;-55
2023/10/22 01:42:26;;;;;;;3.35;1.10;;;;;;;;;;5044347;28;20461;-57
2023/10/22 01:44:53;;;;;;;3.23;1.23;;;;;;;;;;5041953;28;21064;-56
2023/10/22 01:47:20;;;;;;;2.70;1.00;;;;;;;;;;5046605;28;20458;-58
2023/10/22 01:49:47;;;;;;;3.92;0.90;;;;;;;;;;5046879;28;20474;-55
2023/10/22 01:52:14;;;;;;;2.75;0.95;;;;;;;;;;5046936;28;20443;-57
2023/10/22 01:54:41;;;;;;;3.28;1.02;;;;;;;;;;5046504;28;20506;-56
2023/10/22 01:57:08;;;;;;;4.18;1.35;;;;;;;;;;5045382;28;20429;-54
2023/10/22 01:59:38;;;;;;;3.65;1.10;;;;;;;;;;5045209;28;20427;-57
2023/10/22 02:02:05;;;;;;;4.32;1.17;;;;;;;;;;5041132;28;20955;-53
2023/10/22 02:04:33;;;;;;;4.55;1.10;;;;;;;;;;5044009;28;20569;-56
2023/10/22 02:07:00;;;;;;;2.95;1.08;;;;;;;;;;5045515;28;20779;-59
2023/10/22 02:09:27;;;;;;;4.03;1.30;;;;;;;;;;5046911;28;20484;-58
2023/10/22 02:11:55;;;;;;;4.53;1.02;;;;;;;;;;5043556;28;20825;-60
2023/10/22 02:14:22;;;;;;;5.18;1.10;;;;;;;;;;5041766;28;20411;-57
2023/10/22 02:16:50;;;;;;;1.95;0.70;;;;;;;;;;5041731;28;20439;-58
2023/10/22 02:19:18;;;;;;;3.65;0.98;;;;;;;;;;5042841;28;20417;-58
2023/10/22 02:21:46;;;;;;;7.25;1.38;;;;;;;;;;5041476;28;20870;-56
2023/10/22 02:24:13;;;;;;;4.40;1.00;;;;;;;;;;5041367;28;20785;-56
2023/10/22 02:26:40;;;;;;;4.00;0.85;;;;;;;;;;5043242;28;20409;-59
2023/10/22 02:29:07;;;;;;;2.50;0.60;;;;;;;;;;5041510;28;20478;-57
2023/10/22 02:31:34;;;;;;;3.05;0.90;;;;;;;;;;5041513;28;20829;-58
2023/10/22 02:34:06;;;;;;;3.37;0.87;;;;;;;;;;5043428;28;20413;-58
2023/10/22 02:36:33;;;;;;;2.50;0.90;;;;;;;;;;5044033;28;20480;-55
2023/10/22 02:39:00;;;;;;;2.15;0.80;;;;;;;;;;5043382;28;20405;-57
2023/10/22 02:41:28;;;;;;;2.80;1.00;;;;;;;;;;5040505;28;20501;-57
2023/10/22 02:43:55;;;;;;;2.43;0.70;;;;;;;;;;5042245;28;20460;-55
2023/10/22 02:46:22;;;;;;;5.18;1.17;;;;;;;;;;5042633;28;20836;-60
2023/10/22 02:48:49;;;;;;;2.22;0.80;;;;;;;;;;5040222;28;20465;-58
2023/10/22 02:51:18;;;;;;;2.95;0.80;;;;;;;;;;5042112;28;20471;-55
2023/10/22 02:53:45;;;;;;;4.10;0.90;;;;;;;;;;5042424;28;20409;-55
2023/10/22 02:56:12;;;;;;;3.92;1.00;;;;;;;;;;5040021;28;20460;-55
2023/10/22 02:58:40;;;;;;;2.80;0.90;;;;;;;;;;5041784;28;20412;-57
2023/10/22 03:01:07;;;;;;;4.03;1.02;;;;;;;;;;5041142;28;20424;-59
2023/10/22 03:03:38;;;;;;;2.38;0.73;;;;;;;;;;5039758;28;20419;-57
2023/10/22 03:06:06;;;;;;;2.35;0.70;;;;;;;;;;5046428;28;20417;-56
2023/10/22 03:08:34;;;;;;;2.70;0.90;;;;;;;;;;5042778;28;20472;-58
2023/10/22 03:11:01;;;;;;;3.40;1.02;;;;;;;;;;5040259;28;20415;-56
2023/10/22 03:13:28;;;;;;;2.80;0.80;;;;;;;;;;5040764;28;20450;-56
2023/10/22 03:15:55;;;;;;;2.40;0.70;;;;;;;;;;5042355;28;20414;-56
2023/10/22 03:18:22;;;;;;;3.25;0.63;;;;;;;;;;5038729;28;20407;-57
2023/10/22 03:20:50;;;;;;;4.05;1.02;;;;;;;;;;5038479;28;20494;-54
2023/10/22 03:23:17;;;;;;;3.73;0.90;;;;;;;;;;5043453;28;20430;-60
2023/10/22 03:25:45;;;;;;;2.65;1.00;;;;;;;;;;5048579;28;20900;-58
2023/10/22 03:28:12;;;;;;;1.63;0.88;;;;;;;;;;5045397;28;20409;-58
2023/10/22 03:30:39;;;;;;;3.03;0.90;;;;;;;;;;5042028;28;20891;-60
2023/10/22 03:33:06;;;;;;;3.10;0.70;;;;;;;;;;5036143;28;20462;-58
2023/10/22 03:35:35;;;;;;;2.50;0.77;;;;;;;;;;5043322;28;20443;-59
2023/10/22 03:38:02;;;;;;;2.08;0.60;;;;;;;;;;5048182;28;20425;-57
2023/10/22 03:40:29;;;;;;;2.28;0.95;;;;;;;;;;5041908;28;20444;-55
2023/10/22 03:42:58;;;;;;;3.75;0.70;;;;;;;;;;5040263;28;20807;-58
2023/10/22 03:45:25;;;;;;;2.65;0.90;;;;;;;;;;5039470;28;20469;-56
2023/10/22 03:47:52;;;;;;;3.13;0.95;;;;;;;;;;5030547;28;20410;-56
2023/10/22 03:50:19;;;;;;;2.78;0.98;;;;;;;;;;5029658;28;20865;-54
2023/10/22 03:52:46;;;;;;;1.90;0.80;;;;;;;;;;5030818;28;20485;-59
2023/10/22 03:55:13;;;;;;;3.58;1.08;;;;;;;;;;5030702;28;20465;-57
2023/10/22 03:57:40;;;;;;;2.22;0.85;;;;;;;;;;5030344;28;20434;-59
2023/10/22 04:00:10;;;;;;;3.17;0.88;;;;;;;;;;5038165;28;20825;-56
2023/10/22 04:02:37;;;;;;;4.07;1.00;;;;;;;;;;5038875;28;20905;-57
2023/10/22 04:05:04;;;;;;;3.90;1.00;;;;;;;;;;5043896;28;20463;-58
2023/10/22 04:07:31;;;;;;;3.97;1.25;;;;;;;;;;5043573;28;20465;-57
2023/10/22 04:09:58;;;;;;;3.90;0.80;;;;;;;;;;5041764;28;20506;-56
2023/10/22 04:12:25;;;;;;;5.38;1.15;;;;;;;;;;5039903;28;20466;-59
2023/10/22 04:14:52;;;;;;;3.40;1.20;;;;;;;;;;5039320;28;20411;-59
2023/10/22 04:17:20;;;;;;;1.77;0.70;;;;;;;;;;5041675;28;20483;-58
2023/10/22 04:19:47;;;;;;;4.10;1.03;;;;;;;;;;5039995;28;20410;-56
2023/10/22 04:22:14;;;;;;;2.03;0.82;;;;;;;;;;5039418;28;20959;-56
2023/10/22 04:24:41;;;;;;;1.70;0.70;;;;;;;;;;5040813;28;20462;-52
2023/10/22 04:27:08;;;;;;;2.08;0.70;;;;;;;;;;5039811;28;20415;-58
2023/10/22 04:29:35;;;;;;;2.70;0.90;;;;;;;;;;5042809;28;20495;-56
2023/10/22 04:32:02;;;;;;;2.95;0.80;;;;;;;;;;5041963;28;20410;-52
2023/10/22 04:34:31;;;;;;;2.22;0.60;;;;;;;;;;5043385;28;20912;-58
2023/10/22 04:36:58;;;;;;;2.03;0.68;;;;;;;;;;5048356;28;20462;-60
2023/10/22 04:39:25;;;;;;;3.97;0.70;;;;;;;;;;5048765;28;20423;-60
2023/10/22 04:41:52;;;;;;;5.07;0.82;;;;;;;;;;5045776;28;20413;-58
2023/10/22 04:44:20;;;;;;;1.90;0.70;;;;;;;;;;5035635;28;20415;-59
2023/10/22 04:46:47;;;;;;;3.97;1.00;;;;;;;;;;5044628;28;20415;-60
2023/10/22 04:49:13;;;;;;;2.75;0.70;;;;;;;;;;5040945;28;20414;-59
2023/10/22 04:51:42;;;;;;;1.40;0.70;;;;;;;;;;5043183;28;20421;-56
2023/10/22 04:54:09;;;;;;;2.03;0.80;;;;;;;;;;5044939;28;20406;-61
2023/10/22 04:56:36;;;;;;;1.10;0.65;;;;;;;;;;5042821;28;20944;-59
2023/10/22 04:59:04;;;;;;;2.75;0.60;;;;;;;;;;5043671;28;20759;-60
2023/10/22 05:01:31;;;;;;;1.70;0.70;;;;;;;;;;5044275;28;20413;-59
2023/10/22 05:03:58;;;;;;;1.63;0.50;;;;;;;;;;5043129;28;20418;-58
2023/10/22 05:06:25;;;;;;;1.33;0.40;;;;;;;;;;5049547;28;20459;-58
2023/10/22 05:08:54;;;;;;;1.95;0.50;;;;;;;;;;5045912;28;20405;-56
2023/10/22 05:11:21;;;;;;;1.13;0.50;;;;;;;;;;5042384;28;20419;-58
2023/10/22 05:13:48;;;;;;;1.20;0.60;;;;;;;;;;5043261;28;20418;-58
2023/10/22 05:16:15;;;;;;;1.47;0.50;;;;;;;;;;5043739;28;20466;-57
2023/10/22 05:18:42;;;;;;;0.77;0.52;;;;;;;;;;5042548;28;20422;-55
2023/10/22 05:21:09;;;;;;;1.20;0.40;;;;;;;;;;5042941;28;20409;-55
2023/10/22 05:23:36;;;;;;;1.52;0.60;;;;;;;;;;5044663;28;20409;-55
2023/10/22 05:26:06;;;;;;;0.60;0.50;;;;;;;;;;5044246;28;20421;-58
2023/10/22 05:28:33;;;;;;;1.30;0.52;;;;;;;;;;5043469;28;20417;-56
2023/10/22 05:31:00;;;;;;;1.90;0.50;;;;;;;;;;5041615;28;20434;-56
2023/10/22 05:33:27;;;;;;;0.73;0.50;;;;;;;;;;5043178;28;20467;-54
2023/10/22 05:35:54;;;;;;;3.00;0.70;;;;;;;;;;5048556;28;20462;-57
2023/10/22 05:38:21;;;;;;;1.40;0.40;;;;;;;;;;5042373;28;20426;-58
2023/10/22 05:40:48;;;;;;;0.70;0.50;;;;;;;;;;5043851;28;20913;-58
2023/10/22 05:43:16;;;;;;;1.42;0.40;;;;;;;;;;5043035;28;20484;-57
2023/10/22 05:45:43;;;;;;;0.88;0.60;;;;;;;;;;5041413;28;20422;-57
2023/10/22 05:48:10;;;;;;;1.13;0.50;;;;;;;;;;5043895;28;20884;-58
2023/10/22 05:50:39;;;;;;;1.08;0.60;;;;;;;;;;5041948;28;20913;-59
2023/10/22 05:53:06;;;;;;;0.60;0.45;;;;;;;;;;5047983;28;21133;-57
2023/10/22 05:55:33;;;;;;;0.90;0.60;;;;;;;;;;5044398;28;20402;-59
2023/10/22 05:58:00;;;;;;;1.00;0.52;;;;;;;;;;5047501;28;20421;-59
2023/10/22 06:00:28;;;;;;;1.83;0.60;;;;;;;;;;5041410;28;20403;-57
2023/10/22 06:02:55;;;;;;;1.20;0.55;;;;;;;;;;5041169;28;20958;-57
2023/10/22 06:05:23;;;;;;;0.88;0.40;;;;;;;;;;5047430;28;20413;-61
2023/10/22 06:07:51;;;;;;;1.05;0.40;;;;;;;;;;5044584;28;20880;-55
2023/10/22 06:10:18;;;;;;;1.90;0.60;;;;;;;;;;5041358;28;20494;-56
2023/10/22 06:12:45;;;;;;;1.30;0.70;;;;;;;;;;5044979;28;20980;-55
2023/10/22 06:15:13;;;;;;;1.37;0.60;;;;;;;;;;5048613;28;20459;-55
2023/10/22 06:17:41;;;;;;;1.10;0.45;;;;;;;;;;5041735;28;20435;-57
2023/10/22 06:20:10;;;;;;;0.93;0.52;;;;;;;;;;5042840;28;20415;-59
2023/10/22 06:22:37;;;;;;;1.27;0.50;;;;;;;;;;5047351;28;20422;-59
2023/10/22 06:25:04;;;;;;;2.55;0.60;;;;;;;;;;5043448;28;20410;-58
2023/10/22 06:27:31;;;;;;;1.03;0.60;;;;;;;;;;5048925;28;20474;-60
2023/10/22 06:29:58;;;;;;;1.10;0.50;;;;;;;;;;5044423;28;20451;-58
2023/10/22 06:32:25;;;;;;;0.98;0.60;;;;;;;;;;5040681;28;20411;-59
2023/10/22 06:34:54;;;;;;;2.13;0.50;;;;;;;;;;5041296;28;20782;-59
2023/10/22 06:37:20;;;;;;;1.58;0.57;;;;;;;;;;5037974;28;20438;-59
2023/10/22 06:39:47;;;;;;;0.95;0.45;;;;;;;;;;5041305;28;20417;-59
2023/10/22 06:42:14;;;;;;;2.17;0.57;;;;;;;;;;5032642;28;20411;-59
2023/10/22 06:44:43;;;;;;;0.93;0.50;;;;;;;;;;5040815;28;20828;-60
2023/10/22 06:47:11;;;;;;;0.75;0.50;;;;;;;;;;5034476;28;20420;-59
2023/10/22 06:49:37;;;;;;;0.67;0.50;;;;;;;;;;5037664;28;20419;-60
2023/10/22 06:52:06;;;;;;;0.57;0.40;;;;;;;;;;5036570;28;20893;-59
2023/10/22 06:54:33;;;;;;;2.95;0.70;;;;;;;;;;5034160;28;20410;-61
2023/10/22 06:57:00;;;;;;;1.63;0.47;;;;;;;;;;5038597;28;20406;-61
2023/10/22 06:59:28;;;;;;;1.40;0.63;;;;;;;;;;5037498;28;20428;-61
2023/10/22 07:01:55;;;;;;;0.93;0.40;;;;;;;;;;5038945;28;20413;-57
2023/10/22 07:04:22;;;;;;;0.98;0.60;;;;;;;;;;5042265;28;20410;-56
2023/10/22 07:06:49;;;;;;;1.00;0.63;;;;;;;;;;5043973;28;20830;-58
2023/10/22 07:09:17;;;;;;;1.50;0.63;;;;;;;;;;5045390;28;20409;-59
2023/10/22 07:11:46;;;;;;;1.20;0.60;;;;;;;;;;5045932;28;20420;-59
2023/10/22 07:14:13;;;;;;;1.90;0.57;;;;;;;;;;5046246;28;20409;-57
2023/10/22 07:16:40;;;;;;;1.75;0.57;;;;;;;;;;5039715;28;20419;-57
2023/10/22 07:19:07;;;;;;;1.23;0.63;;;;;;;;;;5040861;28;20429;-58
2023/10/22 07:21:34;;;;;;;1.90;0.70;;;;;;;;;;5040456;28;20415;-59
2023/10/22 07:24:01;;;;;;;0.77;0.50;;;;;;;;;;5046923;28;20957;-58
2023/10/22 07:26:29;;;;;;;1.00;0.77;;;;;;;;;;5041290;28;20486;-60
2023/10/22 07:28:56;;;;;;;0.87;0.50;;;;;;;;;;5042256;28;20454;-59
2023/10/22 07:31:23;;;;;;;1.50;0.70;;;;;;;;;;5031551;28;20920;-59
2023/10/22 07:33:51;;;;;;;1.98;0.70;;;;;;;;;;5030483;28;20415;-55
2023/10/22 07:36:18;;;;;;;2.13;0.90;;;;;;;;;;5044341;28;20947;-58
2023/10/22 07:38:45;;;;;;;1.50;0.70;;;;;;;;;;5044928;28;20427;-59
2023/10/22 07:41:15;;;;;;;1.50;0.60;;;;;;;;;;5044158;28;20409;-55
2023/10/22 07:43:43;;;;;;;1.55;0.60;;;;;;;;;;5042400;28;20459;-60
2023/10/22 07:46:11;;;;;;;1.88;0.68;;;;;;;;;;5030793;28;20457;-62
2023/10/22 07:48:38;;;;;;;2.50;0.80;;;;;;;;;;5030705;28;20407;-61
2023/10/22 07:51:09;;;;;;;1.45;0.57;;;;;;;;;;5029815;28;20435;-60
2023/10/22 07:53:36;;;;;;;1.25;0.70;;;;;;;;;;5041999;28;20491;-62
2023/10/22 07:56:03;;;;;;;1.40;0.70;;;;;;;;;;5047684;28;20920;-61
2023/10/22 07:58:30;;;;;;;1.00;0.60;;;;;;;;;;5042153;28;20435;-59
2023/10/22 08:00:59;;;;;;;1.15;0.57;;;;;;;;;;5044698;28;20439;-61
2023/10/22 08:03:26;;;;;;;2.10;0.90;;;;;;;;;;5039316;28;20425;-59
2023/10/22 08:05:53;;;;;;;1.80;0.63;;;;;;;;;;5046307;28;20550;-62
2023/10/22 08:08:20;;;;;;;1.98;0.75;;;;;;;;;;5042574;28;20410;-59
2023/10/22 08:10:47;;;;;;;1.05;0.60;;;;;;;;;;5040392;28;20415;-62
2023/10/22 08:13:14;;;;;;;2.08;0.68;;;;;;;;;;5038087;28;20485;-61
2023/10/22 08:15:41;;;;;;;3.13;0.70;;;;;;;;;;5040933;28;20424;-61
2023/10/22 08:18:09;;;;;;;0.57;0.50;;;;;;;;;;5039965;28;20844;-61
2023/10/22 08:20:36;;;;;;;2.25;0.77;;;;;;;;;;5043472;28;20480;-61
2023/10/22 08:23:03;;;;;;;2.20;0.80;;;;;;;;;;5044326;28;20810;-65
2023/10/22 08:25:30;;;;;;;1.52;0.90;;;;;;;;;;5045758;28;20409;-62
2023/10/22 08:27:57;;;;;;;1.30;0.70;;;;;;;;;;5043653;28;20405;-63
2023/10/22 08:30:24;;;;;;;2.58;0.90;;;;;;;;;;5047835;28;20405;-63
2023/10/22 08:32:52;;;;;;;1.53;0.63;;;;;;;;;;5041875;28;20957;-62
2023/10/22 08:35:20;;;;;;;2.20;0.93;;;;;;;;;;5048547;28;20413;-62
2023/10/22 08:37:47;;;;;;;2.15;0.70;;;;;;;;;;5046796;28;20410;-63
2023/10/22 08:40:14;;;;;;;1.70;0.93;;;;;;;;;;5045423;28;20893;-63
2023/10/22 08:42:41;;;;;;;1.25;0.60;;;;;;;;;;5048535;28;20959;-62
2023/10/22 08:45:09;;;;;;;1.52;0.70;;;;;;;;;;5044091;28;20418;-63
2023/10/22 08:47:36;;;;;;;0.60;0.60;;;;;;;;;;5043169;28;20787;-65
2023/10/22 08:50:03;;;;;;;1.92;0.75;;;;;;;;;;5044116;28;20499;-62
2023/10/22 08:52:31;;;;;;;1.52;0.70;;;;;;;;;;5045214;28;20868;-64
2023/10/22 08:55:00;;;;;;;1.67;0.80;;;;;;;;;;5052119;28;20834;-62
2023/10/22 08:57:27;;;;;;;1.90;0.80;;;;;;;;;;5043156;28;20418;-62
2023/10/22 08:59:54;;;;;;;1.30;0.70;;;;;;;;;;5041856;28;20476;-62
2023/10/22 09:02:26;;;;;;;1.17;0.80;;;;;;;;;;5042111;28;20916;-63
2023/10/22 09:04:53;;;;;;;2.00;0.90;;;;;;;;;;5046302;28;20419;-62
2023/10/22 09:07:20;;;;;;;2.47;0.87;;;;;;;;;;5047474;28;20891;-64
2023/10/22 09:09:49;;;;;;;1.67;0.80;;;;;;;;;;5043648;28;20405;-62
2023/10/22 09:12:16;;;;;;;2.42;0.90;;;;;;;;;;5041298;28;20492;-62
2023/10/22 09:14:44;;;;;;;1.15;0.60;;;;;;;;;;5043730;28;20423;-62
2023/10/22 09:17:17;;;;;;;0.80;0.70;;;;;;;;;;5043554;28;21250;-62
2023/10/22 09:19:47;;;;;;;1.08;0.70;;;;;;;;;;5041065;28;20529;-62
2023/10/22 09:22:22;;;;;;;2.72;0.70;;;;;;;;;;5042425;28;20426;-62
2023/10/22 09:24:52;;;;;;;1.20;0.70;;;;;;;;;;5041769;28;20493;-62
2023/10/22 09:27:24;;;;;;;2.72;0.70;;;;;;;;;;5041919;28;20450;-63
2023/10/22 09:29:52;;;;;;;1.75;0.80;;;;;;;;;;5033022;28;20462;-62
2023/10/22 09:32:19;;;;;;;1.90;0.77;;;;;;;;;;5032836;28;20506;-63
2023/10/22 09:34:46;;;;;;;3.38;0.93;;;;;;;;;;5037915;28;20467;-62
2023/10/22 09:37:14;;;;;;;1.67;0.80;;;;;;;;;;5039478;28;20459;-60
2023/10/22 09:39:42;;;;;;;3.53;1.05;;;;;;;;;;5044289;28;20486;-60
2023/10/22 09:42:12;;;;;;;4.13;2.40;;;;;;;;;;5043193;28;20458;-61
2023/10/22 09:44:40;;;;;;;2.45;0.70;;;;;;;;;;5033791;28;20452;-61
2023/10/22 09:47:08;;;;;;;2.40;1.00;;;;;;;;;;5049992;28;20527;-60
2023/10/22 09:49:38;;;;;;;1.88;0.80;;;;;;;;;;5041042;28;20502;-61
2023/10/22 09:52:06;;;;;;;2.60;0.73;;;;;;;;;;5042714;28;20456;-60
2023/10/22 09:54:37;;;;;;;1.75;0.77;;;;;;;;;;5043057;28;20455;-60
2023/10/22 09:57:07;;;;;;;1.13;0.70;;;;;;;;;;5042048;28;20444;-64
2023/10/22 09:59:36;;;;;;;2.63;0.80;;;;;;;;;;5045029;28;20531;-63
2023/10/22 10:02:04;;;;;;;2.40;0.70;;;;;;;;;;5040829;28;20451;-62
2023/10/22 10:04:34;;;;;;;2.58;0.80;;;;;;;;;;5043467;28;20492;-61
2023/10/22 10:07:03;;;;;;;2.22;0.73;;;;;;;;;;5046112;28;20611;-62
2023/10/22 10:09:30;;;;;;;2.05;0.80;;;;;;;;;;5041628;28;20454;-63
2023/10/22 10:11:58;;;;;;;1.88;0.80;;;;;;;;;;5040983;28;20418;-62
2023/10/22 10:14:41;;;;;;;5.15;2.28;;;;;;;;;;5044272;28;20418;-62
2023/10/22 10:17:09;;;;;;;2.00;0.90;;;;;;;;;;5039656;28;20503;-63
2023/10/22 10:19:36;;;;;;;1.67;0.80;;;;;;;;;;5032521;28;20510;-62
2023/10/22 10:22:03;;;;;;;1.83;0.93;;;;;;;;;;5031424;28;20439;-61
2023/10/22 10:24:31;;;;;;;1.40;0.90;;;;;;;;;;5031875;28;20424;-63
2023/10/22 10:27:17;;;;;;;3.25;0.82;;;;;;;;;;5032273;28;20885;-62
2023/10/22 10:30:05;;;;;;;1.67;0.70;;;;;;;;;;5040275;28;20440;-62
2023/10/22 10:32:42;;;;;;;2.70;0.80;;;;;;;;;;5040116;28;20950;-62
2023/10/22 10:35:10;;;;;;;1.80;0.80;;;;;;;;;;5043670;28;20911;-62
2023/10/22 10:37:37;;;;;;;1.60;0.70;;;;;;;;;;5041174;28;20560;-63
2023/10/22 10:40:05;;;;;;;2.47;0.90;;;;;;;;;;5040231;28;20830;-62
2023/10/22 10:42:51;;;;;;;2.10;0.80;;;;;;;;;;5042746;28;20464;-63
2023/10/22 10:45:19;;;;;;;2.13;0.73;;;;;;;;;;5042316;28;20884;-63
2023/10/22 10:47:46;;;;;;;2.63;0.80;;;;;;;;;;5031275;28;20845;-64
2023/10/22 10:50:18;;;;;;;2.00;1.23;;;;;;;;;;5031457;28;20410;-62
2023/10/22 10:52:59;;;;;;;2.53;1.50;;;;;;;;;;5030133;28;20460;-62
2023/10/22 10:55:32;;;;;;;2.33;1.17;;;;;;;;;;5035462;28;20491;-62
2023/10/22 10:58:00;;;;;;;2.70;0.82;;;;;;;;;;5042228;28;20455;-62
2023/10/22 11:00:30;;;;;;;2.20;0.70;;;;;;;;;;5049059;28;20483;-62
2023/10/22 11:02:58;;;;;;;2.53;0.90;;;;;;;;;;5050740;28;20525;-61
2023/10/22 11:05:32;;;;;;;2.10;0.80;;;;;;;;;;5045871;28;20414;-60
2023/10/22 11:07:59;;;;;;;1.73;0.85;;;;;;;;;;5043481;28;20403;-61
2023/10/22 11:10:29;;;;;;;1.70;0.93;;;;;;;;;;5041267;28;20460;-62
2023/10/22 11:13:02;;;;;;;1.67;0.60;;;;;;;;;;5041826;28;20499;-61
2023/10/22 11:15:33;;;;;;;2.17;0.80;;;;;;;;;;5039649;28;20411;-60
2023/10/22 11:18:01;;;;;;;1.52;0.80;;;;;;;;;;5038272;28;20542;-60
2023/10/22 11:20:29;;;;;;;2.30;0.82;;;;;;;;;;5039445;28;20882;-61
2023/10/22 11:22:56;;;;;;;2.03;1.00;;;;;;;;;;5040561;28;20421;-62
2023/10/22 11:25:23;;;;;;;1.38;0.73;;;;;;;;;;5041412;28;20417;-62
2023/10/22 11:27:50;;;;;;;2.97;0.93;;;;;;;;;;5041951;28;20424;-61
2023/10/22 11:30:32;;;;;;;2.33;0.90;;;;;;;;;;5040134;28;20829;-62
2023/10/22 11:33:00;;;;;;;4.38;0.85;;;;;;;;;;5029917;28;20463;-61
2023/10/22 11:35:30;;;;;;;2.47;0.90;;;;;;;;;;5036404;28;20456;-58
2023/10/22 11:37:57;;;;;;;1.42;0.70;;;;;;;;;;5045364;28;20487;-59
2023/10/22 11:40:24;;;;;;;3.13;0.77;;;;;;;;;;5040187;28;20433;-59
2023/10/22 11:42:51;;;;;;;1.58;0.98;;;;;;;;;;5040930;28;20413;-62
2023/10/22 11:45:19;;;;;;;1.97;0.70;;;;;;;;;;5041442;28;20490;-61
2023/10/22 11:47:46;;;;;;;2.42;0.75;;;;;;;;;;5039586;28;20479;-62
2023/10/22 11:50:15;;;;;;;2.38;0.90;;;;;;;;;;5039233;28;20414;-63
2023/10/22 11:52:52;;;;;;;3.42;0.70;;;;;;;;;;5040864;28;20966;-60
2023/10/22 11:55:21;;;;;;;2.15;0.90;;;;;;;;;;5040084;28;20553;-60
2023/10/22 11:57:48;;;;;;;3.10;1.10;;;;;;;;;;5029738;28;20869;-61
2023/10/22 12:00:15;;;;;;;1.30;0.83;;;;;;;;;;5029922;28;20484;-60
2023/10/22 12:02:42;;;;;;;8.20;1.00;;;;;;;;;;5040999;28;20487;-61
2023/10/22 12:05:11;;;;;;;2.10;1.00;;;;;;;;;;5043139;28;20440;-61
2023/10/22 12:07:39;;;;;;;2.13;0.95;;;;;;;;;;5044179;28;20873;-62
2023/10/22 12:10:07;;;;;;;2.10;0.80;;;;;;;;;;5043966;28;20462;-60
2023/10/22 12:12:34;;;;;;;3.80;0.80;;;;;;;;;;5037960;28;20437;-59
2023/10/22 12:15:04;;;;;;;2.13;0.90;;;;;;;;;;5043968;28;21313;-64
2023/10/22 12:17:31;;;;;;;4.38;1.60;;;;;;;;;;5044973;28;20462;-63
2023/10/22 12:19:58;;;;;;;3.90;1.50;;;;;;;;;;5048158;28;20433;-63
2023/10/22 12:22:25;;;;;;;2.80;0.95;;;;;;;;;;5041853;28;20418;-64
2023/10/22 12:24:57;;;;;;;1.25;0.70;;;;;;;;;;5041240;28;20413;-64
2023/10/22 12:27:23;;;;;;;1.83;0.70;;;;;;;;;;5045046;28;20546;-58
2023/10/22 12:29:51;;;;;;;2.40;0.75;;;;;;;;;;5040316;28;20406;-61
2023/10/22 12:32:18;;;;;;;1.67;0.80;;;;;;;;;;5038139;28;20423;-56
2023/10/22 12:34:45;;;;;;;1.85;0.80;;;;;;;;;;5040487;28;20417;-57
2023/10/22 12:37:12;;;;;;;3.15;0.75;;;;;;;;;;5046671;28;20783;-58
2023/10/22 12:39:41;;;;;;;2.10;0.57;;;;;;;;;;5038456;28;20431;-58
2023/10/22 12:42:09;;;;;;;1.15;0.57;;;;;;;;;;5040254;28;20413;-55
2023/10/22 12:44:36;;;;;;;1.40;0.70;;;;;;;;;;5039671;28;20488;-62
2023/10/22 12:47:03;;;;;;;2.53;0.82;;;;;;;;;;5037624;28;20410;-62
2023/10/22 12:49:30;;;;;;;3.13;0.98;;;;;;;;;;5039639;28;20888;-62
2023/10/22 12:51:57;;;;;;;2.63;0.70;;;;;;;;;;5037260;28;20473;-64
2023/10/22 12:54:24;;;;;;;2.65;0.70;;;;;;;;;;5040240;28;20409;-61
2023/10/22 12:56:52;;;;;;;2.20;0.90;;;;;;;;;;5038768;28;20831;-62
2023/10/22 12:59:20;;;;;;;2.08;0.85;;;;;;;;;;5036297;28;20988;-61
2023/10/22 13:01:47;;;;;;;2.55;0.60;;;;;;;;;;5042501;28;20477;-62
2023/10/22 13:04:14;;;;;;;2.07;0.80;;;;;;;;;;5040911;28;21118;-61
2023/10/22 13:06:41;;;;;;;2.75;1.02;;;;;;;;;;5045093;28;20477;-61
2023/10/22 13:09:09;;;;;;;2.10;0.70;;;;;;;;;;5042712;28;20486;-61
2023/10/22 13:11:37;;;;;;;3.30;0.90;;;;;;;;;;5042515;28;20444;-60
2023/10/22 13:14:04;;;;;;;1.83;0.80;;;;;;;;;;5041834;28;20412;-61
2023/10/22 13:16:32;;;;;;;2.50;0.80;;;;;;;;;;5043184;28;20413;-60
2023/10/22 13:18:59;;;;;;;1.52;0.73;;;;;;;;;;5048948;28;20467;-60
2023/10/22 13:21:26;;;;;;;1.20;0.60;;;;;;;;;;5043485;28;20504;-61
2023/10/22 13:23:53;;;;;;;1.52;0.68;;;;;;;;;;5044129;28;20410;-61
2023/10/22 13:26:20;;;;;;;2.88;1.10;;;;;;;;;;5043199;28;20409;-61
2023/10/22 13:28:48;;;;;;;1.73;0.82;;;;;;;;;;5042669;28;20411;-61
2023/10/22 13:31:15;;;;;;;1.77;0.80;;;;;;;;;;5040878;28;20414;-61
2023/10/22 13:33:43;;;;;;;2.95;1.00;;;;;;;;;;5043111;28;20478;-61
2023/10/22 13:36:10;;;;;;;3.40;0.80;;;;;;;;;;5048273;28;20417;-59
2023/10/22 13:38:37;;;;;;;4.65;1.00;;;;;;;;;;5042187;28;20480;-60
2023/10/22 13:41:04;;;;;;;3.90;0.75;;;;;;;;;;5044877;28;20484;-61
2023/10/22 13:43:31;;;;;;;1.58;0.70;;;;;;;;;;5041786;28;20467;-61
2023/10/22 13:46:01;;;;;;;2.72;1.30;;;;;;;;;;5042782;28;20466;-61
2023/10/22 13:48:28;;;;;;;4.53;2.03;;;;;;;;;;5041623;28;20505;-61
2023/10/22 13:50:58;;;;;;;2.55;1.10;;;;;;;;;;5041974;28;20496;-61
2023/10/22 13:53:25;;;;;;;2.45;0.82;;;;;;;;;;5044140;28;20421;-61
2023/10/22 13:55:57;;;;;;;2.28;1.10;;;;;;;;;;5047738;28;20526;-61
2023/10/22 13:58:24;;;;;;;3.22;1.13;;;;;;;;;;5045734;28;20417;-61
2023/10/22 14:00:51;;;;;;;1.95;1.05;;;;;;;;;;5045716;28;20423;-60
2023/10/22 14:03:18;;;;;;;2.80;1.23;;;;;;;;;;5043635;28;20459;-61
2023/10/22 14:05:49;;;;;;;1.75;1.25;;;;;;;;;;5048910;28;20514;-59
2023/10/22 14:08:17;;;;;;;3.10;1.40;;;;;;;;;;5041265;28;20549;-60
2023/10/22 14:10:45;;;;;;;2.10;1.30;;;;;;;;;;5039749;28;20923;-57
2023/10/22 14:13:12;;;;;;;2.47;1.40;;;;;;;;;;5043388;28;20783;-58
2023/10/22 14:15:39;;;;;;;3.08;1.42;;;;;;;;;;5041359;28;20789;-61
2023/10/22 14:18:06;;;;;;;1.80;1.50;;;;;;;;;;5044935;28;20421;-61
2023/10/22 14:20:34;;;;;;;2.88;2.10;;;;;;;;;;5046551;28;20482;-61
2023/10/22 14:23:00;;;;;;;2.47;2.27;;;;;;;;;;5046163;28;20991;-61
2023/10/22 14:25:29;;;;;;;3.13;2.58;;;;;;;;;;5040475;28;20474;-62
2023/10/22 14:27:56;;;;;;;3.30;3.10;;;;;;;;;;5041276;28;20459;-63
2023/10/22 14:30:23;;;;;;;3.63;3.33;;;;;;;;;;5045781;28;20753;-59
2023/10/22 14:32:50;;;;;;;4.70;4.20;;;;;;;;;;5044795;28;20421;-62
2023/10/22 14:35:17;;;;;;;5.63;4.43;;;;;;;;;;5049689;28;20953;-61
2023/10/22 14:37:44;;;;;;;4.70;4.30;;;;;;;;;;5040773;28;20423;-61
2023/10/22 14:40:11;;;;;;;5.65;4.97;;;;;;;;;;5048092;28;20437;-61
2023/10/22 14:42:40;;;;;;;5.47;4.97;;;;;;;;;;5042594;28;20423;-60
2023/10/22 14:45:08;;;;;;;5.63;5.03;;;;;;;;;;5046086;28;20467;-68
2023/10/22 14:47:35;;;;;;;5.93;5.43;;;;;;;;;;5044582;28;20475;-65